createdAt,value
2019-01-26T00:01:36.424Z,48.70
2019-01-26T00:04:03.901Z,43.77
2019-01-26T00:06:30.938Z,39.80
2019-01-26T00:08:57.970Z,38.87
2019-01-26T00:11:25.014Z,44.20
2019-01-26T00:13:51.944Z,45.50
2019-01-26T00:16:21.134Z,42.87
2019-01-26T00:18:47.999Z,35.13
2019-01-26T00:21:14.898Z,42.30
2019-01-26T00:23:41.725Z,42.53
2019-01-26T00:26:08.813Z,41.77
2019-01-26T00:28:35.702Z,41.03
2019-01-26T00:31:03.102Z,34.97
2019-01-26T00:33:29.940Z,35.33
2019-01-26T00:35:56.954Z,37.80
2019-01-26T00:38:23.760Z,32.90
2019-01-26T00:40:50.727Z,34.83
2019-01-26T00:43:17.536Z,38.03
2019-01-26T00:45:44.353Z,39.30
2019-01-26T00:48:11.304Z,35.47
2019-01-26T00:50:38.237Z,34.30
2019-01-26T00:53:05.154Z,34.27
2019-01-26T00:55:32.098Z,33.70
2019-01-26T00:57:59.000Z,35.43
2019-01-26T01:00:26.134Z,33.50
2019-01-26T01:02:53.093Z,31.97
2019-01-26T01:05:20.101Z,33.43
2019-01-26T01:07:47.144Z,33.27
2019-01-26T01:10:14.835Z,36.03
2019-01-26T01:12:41.891Z,34.10
2019-01-26T01:15:09.918Z,33.60
2019-01-26T01:17:36.874Z,30.67
2019-01-26T01:20:05.010Z,34.90
2019-01-26T01:22:32.026Z,35.47
2019-01-26T01:24:58.966Z,35.27
2019-01-26T01:27:25.916Z,32.70
2019-01-26T01:29:52.730Z,37.07
2019-01-26T01:32:19.698Z,36.97
2019-01-26T01:34:46.656Z,30.57
2019-01-26T01:37:13.659Z,34.47
2019-01-26T01:39:40.635Z,34.00
2019-01-26T01:42:07.565Z,32.40
2019-01-26T01:44:34.365Z,35.00
2019-01-26T01:47:01.320Z,36.47
2019-01-26T01:49:28.135Z,33.00
2019-01-26T01:51:55.050Z,34.70
2019-01-26T01:54:21.973Z,36.87
2019-01-26T01:56:48.781Z,37.50
2019-01-26T01:59:15.706Z,38.93
2019-01-26T02:01:42.653Z,36.43
2019-01-26T02:04:09.666Z,33.40
2019-01-26T02:06:36.611Z,36.77
2019-01-26T02:09:06.774Z,34.27
2019-01-26T02:11:33.691Z,40.70
2019-01-26T02:14:00.678Z,42.93
2019-01-26T02:16:27.615Z,45.93
2019-01-26T02:18:54.443Z,43.73
2019-01-26T02:21:21.361Z,38.43
2019-01-26T02:23:48.226Z,41.40
2019-01-26T02:26:15.245Z,42.10
2019-01-26T02:28:42.265Z,44.30
2019-01-26T02:31:09.213Z,40.07
2019-01-26T02:33:36.338Z,41.23
2019-01-26T02:36:03.350Z,47.83
2019-01-26T02:38:30.198Z,43.27
2019-01-26T02:40:57.119Z,45.80
2019-01-26T02:43:23.919Z,41.60
2019-01-26T02:45:50.869Z,44.40
2019-01-26T02:48:17.717Z,43.97
2019-01-26T02:50:44.534Z,46.43
2019-01-26T02:53:11.485Z,45.40
2019-01-26T02:55:38.401Z,46.37
2019-01-26T02:58:05.445Z,46.80
2019-01-26T03:00:32.388Z,44.13
2019-01-26T03:02:59.394Z,44.77
2019-01-26T03:05:26.197Z,42.63
2019-01-26T03:07:53.252Z,44.17
2019-01-26T03:10:21.541Z,46.03
2019-01-26T03:12:48.539Z,39.53
2019-01-26T03:15:17.550Z,44.03
2019-01-26T03:17:44.545Z,43.17
2019-01-26T03:20:12.742Z,51.90
2019-01-26T03:22:39.711Z,47.93
2019-01-26T03:25:07.257Z,48.10
2019-01-26T03:27:34.162Z,47.13
2019-01-26T03:30:01.120Z,50.93
2019-01-26T03:32:27.927Z,49.77
2019-01-26T03:34:54.899Z,53.50
2019-01-26T03:37:21.766Z,57.17
2019-01-26T03:39:48.583Z,49.00
2019-01-26T03:42:15.582Z,50.63
2019-01-26T03:44:42.630Z,51.70
2019-01-26T03:47:13.802Z,44.03
2019-01-26T03:49:38.488Z,51.83
2019-01-26T03:52:05.465Z,51.90
2019-01-26T03:54:32.476Z,50.70
2019-01-26T03:56:59.495Z,58.33
2019-01-26T03:59:26.443Z,50.00
2019-01-26T04:01:53.446Z,53.20
2019-01-26T04:04:20.353Z,56.67
2019-01-26T04:06:47.195Z,53.70
2019-01-26T04:09:14.113Z,55.40
2019-01-26T04:11:41.121Z,60.10
2019-01-26T04:14:08.186Z,56.63
2019-01-26T04:16:35.015Z,55.43
2019-01-26T04:19:01.946Z,63.83
2019-01-26T04:21:28.988Z,55.17
2019-01-26T04:23:55.793Z,56.10
2019-01-26T04:26:22.601Z,61.17
2019-01-26T04:28:49.665Z,60.27
2019-01-26T04:31:16.523Z,58.57
2019-01-26T04:33:43.587Z,53.23
2019-01-26T04:36:10.527Z,50.23
2019-01-26T04:38:37.442Z,61.47
2019-01-26T04:41:04.352Z,54.53
2019-01-26T04:43:31.225Z,53.53
2019-01-26T04:45:58.035Z,53.90
2019-01-26T04:48:24.973Z,50.73
2019-01-26T04:50:51.817Z,58.37
2019-01-26T04:53:18.639Z,56.87
2019-01-26T04:55:45.536Z,53.20
2019-01-26T04:58:12.394Z,53.30
2019-01-26T05:00:39.298Z,60.10
2019-01-26T05:03:07.129Z,52.40
2019-01-26T05:05:34.145Z,56.80
2019-01-26T05:08:01.321Z,59.90
2019-01-26T05:10:28.331Z,54.37
2019-01-26T05:12:55.301Z,60.73
2019-01-26T05:15:22.334Z,59.20
2019-01-26T05:17:49.361Z,61.13
2019-01-26T05:20:21.353Z,60.97
2019-01-26T05:22:48.388Z,67.60
2019-01-26T05:25:15.299Z,63.73
2019-01-26T05:27:42.361Z,61.30
2019-01-26T05:30:16.288Z,59.43
2019-01-26T05:32:43.313Z,54.63
2019-01-26T05:35:10.460Z,62.33
2019-01-26T05:37:37.479Z,65.60
2019-01-26T05:40:06.933Z,59.63
2019-01-26T05:42:33.785Z,66.63
2019-01-26T05:45:00.583Z,64.40
2019-01-26T05:47:29.327Z,58.87
2019-01-26T05:49:56.270Z,65.43
2019-01-26T05:52:23.194Z,68.20
2019-01-26T05:54:50.125Z,62.53
2019-01-26T05:57:16.959Z,66.53
2019-01-26T05:59:43.767Z,69.80
2019-01-26T06:02:10.808Z,70.37
2019-01-26T06:04:37.640Z,67.10
2019-01-26T06:07:04.531Z,63.67
2019-01-26T06:09:31.467Z,67.77
2019-01-26T06:11:58.311Z,60.07
2019-01-26T06:14:25.135Z,58.97
2019-01-26T06:16:52.255Z,67.83
2019-01-26T06:19:19.183Z,64.50
2019-01-26T06:21:45.990Z,60.53
2019-01-26T06:24:12.916Z,63.77
2019-01-26T06:26:39.965Z,63.07
2019-01-26T06:29:06.745Z,59.83
2019-01-26T06:31:33.682Z,60.47
2019-01-26T06:34:00.646Z,64.67
2019-01-26T06:36:27.971Z,58.33
2019-01-26T06:38:55.017Z,66.43
2019-01-26T06:41:21.962Z,60.57
2019-01-26T06:43:48.993Z,60.77
2019-01-26T06:46:15.807Z,62.70
2019-01-26T06:48:42.954Z,63.60
2019-01-26T06:51:09.856Z,64.67
2019-01-26T06:53:36.754Z,62.47
2019-01-26T06:56:03.821Z,62.63
2019-01-26T06:58:32.157Z,65.27
2019-01-26T07:00:59.333Z,61.27
2019-01-26T07:03:26.169Z,68.77
2019-01-26T07:06:10.305Z,64.83
2019-01-26T07:08:37.144Z,61.93
2019-01-26T07:11:04.250Z,64.07
2019-01-26T07:13:31.166Z,55.00
2019-01-26T07:15:59.508Z,65.73
2019-01-26T07:18:26.415Z,66.93
2019-01-26T07:20:53.421Z,59.50
2019-01-26T07:23:20.541Z,63.20
2019-01-26T07:25:47.546Z,59.80
2019-01-26T07:28:14.567Z,60.03
2019-01-26T07:30:41.514Z,66.83
2019-01-26T07:33:08.422Z,58.10
2019-01-26T07:35:35.347Z,68.00
2019-01-26T07:38:02.789Z,62.43
2019-01-26T07:40:29.905Z,66.70
2019-01-26T07:42:56.888Z,68.50
2019-01-26T07:45:24.096Z,72.40
2019-01-26T07:47:51.001Z,69.80
2019-01-26T07:50:18.637Z,67.20
2019-01-26T07:52:45.674Z,64.90
2019-01-26T07:55:12.770Z,68.10
2019-01-26T07:57:39.773Z,68.03
2019-01-26T08:00:10.234Z,66.27
2019-01-26T08:02:37.138Z,67.27
2019-01-26T08:05:05.429Z,63.10
2019-01-26T08:07:32.285Z,65.83
2019-01-26T08:09:59.150Z,74.13
2019-01-26T08:12:25.962Z,70.13
2019-01-26T08:14:52.799Z,71.87
2019-01-26T08:17:19.712Z,69.37
2019-01-26T08:19:46.509Z,70.13
2019-01-26T08:22:13.342Z,65.43
2019-01-26T08:24:40.150Z,68.93
2019-01-26T08:27:07.089Z,65.67
2019-01-26T08:29:33.945Z,65.73
2019-01-26T08:32:00.970Z,68.33
2019-01-26T08:34:27.894Z,74.23
2019-01-26T08:36:54.774Z,69.97
2019-01-26T08:39:21.586Z,62.27
2019-01-26T08:41:48.443Z,61.60
2019-01-26T08:44:15.301Z,65.97
2019-01-26T08:46:42.105Z,60.70
2019-01-26T08:49:09.011Z,59.37
2019-01-26T08:51:36.170Z,62.70
2019-01-26T08:54:03.314Z,58.67
2019-01-26T08:56:30.338Z,56.47
2019-01-26T08:58:57.346Z,58.40
2019-01-26T09:01:44.086Z,58.63
2019-01-26T09:04:21.641Z,60.77
2019-01-26T09:06:51.894Z,62.63
2019-01-26T09:09:18.717Z,56.73
2019-01-26T09:11:45.621Z,60.13
2019-01-26T09:14:12.626Z,60.83
2019-01-26T09:16:39.431Z,55.07
2019-01-26T09:19:06.551Z,59.40
2019-01-26T09:21:33.578Z,56.30
2019-01-26T09:24:00.480Z,64.70
2019-01-26T09:26:27.721Z,62.20
2019-01-26T09:28:54.559Z,67.77
2019-01-26T09:31:21.350Z,63.40
2019-01-26T09:33:48.189Z,60.17
2019-01-26T09:36:15.210Z,59.10
2019-01-26T09:38:42.206Z,64.77
2019-01-26T09:41:09.296Z,61.40
2019-01-26T09:43:36.125Z,61.83
2019-01-26T09:46:03.173Z,60.63
2019-01-26T09:48:30.093Z,65.77
2019-01-26T09:50:57.021Z,62.73
2019-01-26T09:53:23.942Z,62.63
2019-01-26T09:55:50.782Z,60.33
2019-01-26T09:58:19.934Z,67.50
2019-01-26T10:00:46.974Z,58.20
2019-01-26T10:03:14.024Z,62.47
2019-01-26T10:05:40.992Z,68.60
2019-01-26T10:08:08.049Z,60.80
2019-01-26T10:10:34.893Z,59.93
2019-01-26T10:13:01.955Z,60.43
2019-01-26T10:15:30.098Z,62.37
2019-01-26T10:17:57.354Z,64.30
2019-01-26T10:20:26.349Z,62.57
2019-01-26T10:22:53.384Z,65.50
2019-01-26T10:25:20.574Z,65.27
2019-01-26T10:27:47.506Z,58.03
2019-01-26T10:30:18.472Z,62.83
2019-01-26T10:32:45.354Z,61.47
2019-01-26T10:35:12.370Z,60.27
2019-01-26T10:37:39.197Z,65.87
2019-01-26T10:40:20.210Z,57.03
2019-01-26T10:42:47.120Z,59.67
2019-01-26T10:45:14.109Z,59.87
2019-01-26T10:47:41.041Z,62.20
2019-01-26T10:50:08.121Z,61.00
2019-01-26T10:52:34.985Z,59.37
2019-01-26T10:55:02.298Z,64.70
2019-01-26T10:57:29.186Z,58.43
2019-01-26T10:59:56.305Z,64.97
2019-01-26T11:02:23.363Z,57.13
2019-01-26T11:04:50.160Z,60.70
2019-01-26T11:07:17.073Z,64.50
2019-01-26T11:09:44.049Z,59.00
2019-01-26T11:12:10.978Z,61.27
2019-01-26T11:14:37.921Z,51.13
2019-01-26T11:17:04.858Z,56.37
2019-01-26T11:19:31.965Z,61.97
2019-01-26T11:21:58.857Z,56.97
2019-01-26T11:24:25.825Z,63.23
2019-01-26T11:26:52.865Z,62.00
2019-01-26T11:29:19.793Z,69.77
2019-01-26T11:31:46.753Z,60.07
2019-01-26T11:34:13.637Z,64.60
2019-01-26T11:36:40.426Z,64.70
2019-01-26T11:39:08.906Z,65.47
2019-01-26T11:41:35.849Z,66.47
2019-01-26T11:44:02.978Z,68.97
2019-01-26T11:46:39.810Z,66.93
2019-01-26T11:49:06.709Z,63.23
2019-01-26T11:51:53.405Z,69.73
2019-01-26T11:54:20.206Z,71.37
2019-01-26T11:56:53.462Z,65.73
2019-01-26T11:59:20.325Z,67.37
2019-01-26T12:01:54.523Z,67.27
2019-01-26T12:04:32.663Z,68.33
2019-01-26T12:07:31.222Z,72.67
2019-01-26T12:09:58.164Z,75.03
2019-01-26T12:12:25.073Z,73.63
2019-01-26T12:14:51.861Z,73.80
2019-01-26T12:17:18.694Z,74.43
2019-01-26T12:20:06.917Z,71.57
2019-01-26T12:22:33.753Z,69.53
2019-01-26T12:25:00.808Z,77.73
2019-01-26T12:27:27.627Z,82.03
2019-01-26T12:29:54.697Z,70.20
2019-01-26T12:32:21.492Z,75.90
2019-01-26T12:34:48.308Z,74.97
2019-01-26T12:37:15.190Z,72.37
2019-01-26T12:39:41.986Z,68.97
2019-01-26T12:42:08.805Z,71.10
2019-01-26T12:44:35.755Z,70.33
2019-01-26T12:47:03.149Z,70.63
2019-01-26T12:49:29.950Z,53.83
2019-01-26T12:51:56.899Z,51.43
2019-01-26T12:54:23.827Z,72.67
2019-01-26T12:56:50.661Z,65.40
2019-01-26T12:59:17.596Z,70.93
2019-01-26T13:01:44.518Z,60.53
2019-01-26T13:04:11.669Z,64.63
2019-01-26T13:06:38.868Z,46.60
2019-01-26T13:09:10.482Z,44.43
2019-01-26T13:11:39.535Z,55.50
2019-01-26T13:14:06.585Z,68.67
2019-01-26T13:16:33.589Z,68.10
2019-01-26T13:19:00.642Z,70.13
2019-01-26T13:21:27.597Z,72.47
2019-01-26T13:23:54.430Z,72.73
2019-01-26T13:26:21.437Z,74.73
2019-01-26T13:29:08.018Z,72.97
2019-01-26T13:31:34.950Z,69.87
2019-01-26T13:34:01.961Z,70.60
2019-01-26T13:36:29.014Z,75.83
2019-01-26T13:38:57.242Z,71.07
2019-01-26T13:41:24.279Z,61.73
2019-01-26T13:43:51.132Z,62.27
2019-01-26T13:46:18.021Z,66.80
2019-01-26T13:48:44.832Z,67.20
2019-01-26T13:51:13.137Z,56.80
2019-01-26T13:53:40.410Z,57.97
2019-01-26T13:56:07.578Z,64.57
2019-01-26T13:58:34.638Z,61.10
2019-01-26T14:01:01.689Z,65.80
2019-01-26T14:03:28.689Z,61.03
2019-01-26T14:05:55.544Z,63.23
2019-01-26T14:08:22.449Z,62.90
2019-01-26T14:10:49.349Z,63.07
2019-01-26T14:13:16.350Z,62.77
2019-01-26T14:15:43.394Z,59.70
2019-01-26T14:18:10.401Z,60.73
2019-01-26T14:20:37.457Z,55.30
2019-01-26T14:23:04.500Z,60.07
2019-01-26T14:25:31.398Z,63.70
2019-01-26T14:27:58.449Z,58.47
2019-01-26T14:30:28.097Z,59.00
2019-01-26T14:32:55.135Z,59.17
2019-01-26T14:35:22.254Z,61.23
2019-01-26T14:37:49.282Z,65.13
2019-01-26T14:40:16.417Z,61.27
2019-01-26T14:42:43.473Z,57.17
2019-01-26T14:45:11.300Z,67.37
2019-01-26T14:47:38.297Z,59.40
2019-01-26T14:50:06.607Z,64.33
2019-01-26T14:52:33.679Z,64.00
2019-01-26T14:55:00.513Z,60.73
2019-01-26T14:57:27.558Z,62.80
2019-01-26T14:59:54.525Z,63.77
2019-01-26T15:02:21.322Z,57.23
2019-01-26T15:04:48.163Z,56.50
2019-01-26T15:07:14.970Z,57.03
2019-01-26T15:09:41.782Z,64.67
2019-01-26T15:12:08.615Z,62.50
2019-01-26T15:14:35.547Z,61.20
2019-01-26T15:17:02.573Z,66.93
2019-01-26T15:19:29.518Z,61.20
2019-01-26T15:21:56.438Z,67.73
2019-01-26T15:24:23.262Z,63.87
2019-01-26T15:26:50.114Z,66.07
2019-01-26T15:29:17.122Z,71.87
2019-01-26T15:31:44.151Z,63.73
2019-01-26T15:34:11.136Z,60.90
2019-01-26T15:36:38.037Z,63.43
2019-01-26T15:39:06.827Z,63.83
2019-01-26T15:41:33.692Z,62.77
2019-01-26T15:44:00.481Z,66.20
2019-01-26T15:46:27.386Z,58.07
2019-01-26T15:48:54.348Z,63.43
2019-01-26T15:51:21.174Z,58.70
2019-01-26T15:53:48.077Z,59.07
2019-01-26T15:56:15.026Z,55.60
2019-01-26T15:58:41.833Z,61.07
2019-01-26T16:01:08.764Z,64.00
2019-01-26T16:03:35.777Z,59.03
2019-01-26T16:06:02.806Z,58.67
2019-01-26T16:08:29.627Z,56.70
2019-01-26T16:10:56.586Z,65.87
2019-01-26T16:13:23.497Z,64.30
2019-01-26T16:15:50.298Z,61.67
2019-01-26T16:18:17.235Z,63.27
2019-01-26T16:20:44.282Z,66.63
2019-01-26T16:23:11.266Z,66.87
2019-01-26T16:25:38.114Z,71.60
2019-01-26T16:28:05.137Z,64.50
2019-01-26T16:30:32.472Z,71.73
2019-01-26T16:32:59.394Z,67.80
2019-01-26T16:35:26.604Z,73.40
2019-01-26T16:37:53.633Z,67.47
2019-01-26T16:40:25.857Z,67.50
2019-01-26T16:42:52.880Z,69.73
2019-01-26T16:45:22.262Z,73.70
2019-01-26T16:47:49.107Z,72.90
2019-01-26T16:50:18.725Z,70.53
2019-01-26T16:52:45.727Z,75.13
2019-01-26T16:55:12.885Z,67.07
2019-01-26T16:57:39.947Z,63.67
2019-01-26T17:00:14.365Z,72.47
2019-01-26T17:02:41.277Z,65.07
2019-01-26T17:05:08.347Z,69.73
2019-01-26T17:07:35.520Z,66.67
2019-01-26T17:10:03.366Z,72.83
2019-01-26T17:12:30.276Z,64.40
2019-01-26T17:14:57.226Z,70.67
2019-01-26T17:17:24.061Z,60.60
2019-01-26T17:19:50.873Z,60.47
2019-01-26T17:22:17.923Z,59.90
2019-01-26T17:24:44.725Z,60.03
2019-01-26T17:27:11.528Z,60.37
2019-01-26T17:29:38.465Z,59.63
2019-01-26T17:32:05.485Z,56.60
2019-01-26T17:34:32.316Z,60.90
2019-01-26T17:36:59.282Z,58.67
2019-01-26T17:39:26.191Z,57.70
2019-01-26T17:41:53.051Z,54.47
2019-01-26T17:44:20.064Z,55.20
2019-01-26T17:46:47.062Z,56.33
2019-01-26T17:49:13.979Z,44.53
2019-01-26T17:51:41.030Z,55.93
2019-01-26T17:54:08.030Z,53.60
2019-01-26T17:56:35.040Z,53.53
2019-01-26T17:59:02.091Z,61.73
2019-01-26T18:01:28.918Z,55.20
2019-01-26T18:03:55.930Z,59.03
2019-01-26T18:06:23.085Z,53.10
2019-01-26T18:08:49.893Z,51.53
2019-01-26T18:11:20.557Z,52.43
2019-01-26T18:13:47.610Z,54.97
2019-01-26T18:16:14.418Z,59.23
2019-01-26T18:18:41.439Z,61.53
2019-01-26T18:21:08.283Z,49.40
2019-01-26T18:23:35.397Z,51.17
2019-01-26T18:26:02.653Z,56.83
2019-01-26T18:28:29.613Z,56.17
2019-01-26T18:30:56.405Z,59.23
2019-01-26T18:33:23.242Z,54.47
2019-01-26T18:35:50.214Z,57.30
2019-01-26T18:38:17.030Z,48.77
2019-01-26T18:40:43.937Z,46.80
2019-01-26T18:43:10.874Z,50.30
2019-01-26T18:45:37.910Z,55.23
2019-01-26T18:48:05.432Z,52.47
2019-01-26T18:50:33.902Z,52.80
2019-01-26T18:53:00.898Z,56.47
2019-01-26T18:55:27.907Z,57.07
2019-01-26T18:57:54.944Z,59.43
2019-01-26T19:00:33.971Z,61.17
2019-01-26T19:03:37.791Z,49.47
2019-01-26T19:06:05.214Z,64.50
2019-01-26T19:08:32.129Z,58.27
2019-01-26T19:10:58.978Z,53.10
2019-01-26T19:13:25.882Z,55.73
2019-01-26T19:15:52.906Z,54.87
2019-01-26T19:18:19.977Z,58.10
2019-01-26T19:20:46.901Z,66.60
2019-01-26T19:23:13.890Z,61.73
2019-01-26T19:25:40.929Z,59.53
2019-01-26T19:28:07.927Z,63.13
2019-01-26T19:30:34.946Z,51.53
2019-01-26T19:33:02.005Z,59.63
2019-01-26T19:35:29.001Z,57.27
2019-01-26T19:37:56.042Z,61.63
2019-01-26T19:40:22.889Z,58.60
2019-01-26T19:42:49.894Z,60.20
2019-01-26T19:45:18.483Z,53.40
2019-01-26T19:47:45.510Z,61.30
2019-01-26T19:50:15.353Z,57.60
2019-01-26T19:52:43.201Z,57.73
2019-01-26T19:55:10.248Z,65.17
2019-01-26T19:57:37.255Z,63.17
2019-01-26T20:00:05.732Z,59.07
2019-01-26T20:02:32.794Z,62.60
2019-01-26T20:04:59.796Z,58.10
2019-01-26T20:07:26.817Z,65.50
2019-01-26T20:09:53.867Z,61.60
2019-01-26T20:12:20.766Z,66.57
2019-01-26T20:14:47.575Z,61.63
2019-01-26T20:17:14.732Z,66.63
2019-01-26T20:19:41.729Z,67.73
2019-01-26T20:22:08.750Z,58.87
2019-01-26T20:24:35.785Z,59.43
2019-01-26T20:27:02.802Z,67.90
2019-01-26T20:29:29.815Z,60.63
2019-01-26T20:31:56.850Z,66.10
2019-01-26T20:34:24.137Z,63.40
2019-01-26T20:36:51.073Z,65.40
2019-01-26T20:39:18.145Z,72.63
2019-01-26T20:41:45.166Z,60.07
2019-01-26T20:44:12.177Z,68.33
2019-01-26T20:46:39.018Z,59.00
2019-01-26T20:49:05.817Z,65.47
2019-01-26T20:51:32.782Z,60.23
2019-01-26T20:53:59.753Z,63.07
2019-01-26T20:56:26.703Z,63.23
2019-01-26T20:58:56.703Z,63.77
2019-01-26T21:01:23.646Z,69.70
2019-01-26T21:03:50.678Z,62.37
2019-01-26T21:06:17.482Z,66.27
2019-01-26T21:08:44.912Z,64.17
2019-01-26T21:11:11.822Z,66.60
2019-01-26T21:13:38.642Z,66.13
2019-01-26T21:16:05.669Z,65.77
2019-01-26T21:18:32.519Z,62.90
2019-01-26T21:20:59.443Z,68.47
2019-01-26T21:23:26.297Z,67.40
2019-01-26T21:25:53.465Z,61.87
2019-01-26T21:28:20.552Z,58.53
2019-01-26T21:30:47.580Z,61.00
2019-01-26T21:33:14.514Z,70.57
2019-01-26T21:35:41.562Z,68.43
2019-01-26T21:38:08.742Z,67.23
2019-01-26T21:40:35.678Z,62.23
2019-01-26T21:43:02.821Z,63.70
2019-01-26T21:45:29.878Z,57.83
2019-01-26T21:47:56.953Z,59.80
2019-01-26T21:50:28.691Z,66.60
2019-01-26T21:52:56.022Z,64.77
2019-01-26T21:55:23.237Z,58.70
2019-01-26T21:57:50.062Z,65.67
2019-01-26T22:00:19.279Z,60.87
2019-01-26T22:02:46.285Z,69.47
2019-01-26T22:05:13.328Z,59.77
2019-01-26T22:07:40.397Z,60.17
2019-01-26T22:10:09.813Z,59.93
2019-01-26T22:12:36.838Z,62.00
2019-01-26T22:15:05.798Z,64.93
2019-01-26T22:17:32.713Z,67.03
2019-01-26T22:19:59.626Z,66.63
2019-01-26T22:22:26.778Z,66.83
2019-01-26T22:24:53.596Z,54.47
2019-01-26T22:27:20.514Z,57.63
2019-01-26T22:29:47.389Z,63.73
2019-01-26T22:32:14.314Z,64.57
2019-01-26T22:34:41.819Z,58.00
2019-01-26T22:37:09.839Z,61.40
2019-01-26T22:39:36.904Z,64.53
2019-01-26T22:42:05.163Z,61.87
2019-01-26T22:44:32.277Z,58.30
2019-01-26T22:46:59.740Z,62.27
2019-01-26T22:49:26.688Z,67.33
2019-01-26T22:51:54.394Z,57.07
2019-01-26T22:54:21.567Z,65.30
2019-01-26T22:56:49.235Z,55.83
2019-01-26T22:59:17.018Z,53.30
2019-01-26T23:01:45.078Z,55.03
2019-01-26T23:04:50.524Z,56.83
2019-01-26T23:07:44.907Z,54.20
2019-01-26T23:10:53.446Z,56.07
2019-01-26T23:13:52.007Z,56.07
2019-01-26T23:17:02.812Z,54.53
2019-01-26T23:19:58.126Z,54.80
2019-01-26T23:23:16.574Z,62.23
2019-01-26T23:26:18.628Z,53.47
2019-01-26T23:29:06.154Z,56.87
2019-01-26T23:31:33.284Z,56.30
2019-01-26T23:34:01.032Z,59.03
2019-01-26T23:36:28.410Z,51.30
2019-01-26T23:39:02.147Z,54.13
2019-01-26T23:41:26.329Z,56.53
2019-01-26T23:43:55.439Z,55.67
2019-01-26T23:46:22.438Z,52.33
2019-01-26T23:48:49.248Z,61.27
2019-01-26T23:51:16.234Z,59.10
2019-01-26T23:53:43.162Z,58.90
2019-01-26T23:56:10.076Z,62.93
2019-01-26T23:58:37.128Z,64.93
